Time;durP1;ratioP1;P1;durP2;ratioP2;P2;SDS_P1;SDS_P2;PMS_P1;PMS_P2;Temp;Humidity;BMP_temperature;BMP_pressure;BME280_temperature;BME280_humidity;BME280_pressure;Samples;Min_cycle;Max_cycle;Signal;HPM_P1;HPM_P2
2023/04/19 00:01:01;;;;;;;10.70;7.07;;;13.10;60.50;;;;;;5057551;28;20060;-69
2023/04/19 00:03:29;;;;;;;11.48;7.05;;;13.10;60.60;;;;;;5053297;28;20033;-69
2023/04/19 00:05:57;;;;;;;11.65;7.18;;;13.10;60.70;;;;;;5041492;28;20041;-68
2023/04/19 00:08:24;;;;;;;11.20;6.97;;;13.10;60.80;;;;;;5041280;28;20346;-69
2023/04/19 00:10:49;;;;;;;11.15;7.00;;;13.10;60.90;;;;;;5057226;28;20353;-69
2023/04/19 00:13:15;;;;;;;11.68;6.88;;;13.10;61.00;;;;;;5043911;28;20089;-69
2023/04/19 00:15:42;;;;;;;10.88;7.32;;;13.10;61.00;;;;;;5057339;28;20021;-69
2023/04/19 00:18:08;;;;;;;10.68;6.90;;;13.00;61.80;;;;;;5041672;28;20029;-69
2023/04/19 00:20:34;;;;;;;10.45;6.72;;;13.00;61.30;;;;;;5036870;28;20517;-69
2023/04/19 00:23:00;;;;;;;12.13;7.80;;;13.00;61.40;;;;;;5043404;28;20380;-69
2023/04/19 00:25:27;;;;;;;11.27;7.40;;;13.00;61.60;;;;;;5046870;28;20469;-69
2023/04/19 00:27:52;;;;;;;11.40;7.70;;;13.00;61.70;;;;;;5045808;28;20033;-69
2023/04/19 00:30:19;;;;;;;12.20;7.30;;;13.00;61.80;;;;;;5047687;28;20032;-69
2023/04/19 00:32:46;;;;;;;11.73;8.27;;;13.00;61.90;;;;;;5051535;28;20028;-69
2023/04/19 00:35:13;;;;;;;11.75;6.85;;;13.00;62.00;;;;;;5049308;28;20036;-69
2023/04/19 00:37:39;;;;;;;10.85;7.32;;;12.90;62.00;;;;;;5042622;28;20033;-69
2023/04/19 00:40:05;;;;;;;11.35;7.47;;;12.90;62.10;;;;;;5035123;28;20188;-68
2023/04/19 00:42:31;;;;;;;13.30;7.60;;;12.90;62.20;;;;;;5025492;28;20128;-68
2023/04/19 00:44:57;;;;;;;12.80;8.07;;;12.90;62.40;;;;;;5042504;28;20526;-68
2023/04/19 00:47:24;;;;;;;13.45;8.15;;;12.90;62.50;;;;;;5038451;28;20168;-68
2023/04/19 00:49:51;;;;;;;10.75;6.63;;;12.80;62.50;;;;;;5014974;28;20033;-69
2023/04/19 00:52:17;;;;;;;11.32;7.50;;;12.90;62.60;;;;;;5040336;28;20087;-69
2023/04/19 00:54:44;;;;;;;10.40;6.78;;;12.80;62.70;;;;;;5038831;28;20034;-68
2023/04/19 00:57:12;;;;;;;11.70;6.88;;;12.80;62.70;;;;;;5054790;28;20033;-69
2023/04/19 00:59:38;;;;;;;11.40;6.95;;;12.80;62.80;;;;;;5048336;28;20079;-70
2023/04/19 01:02:03;;;;;;;10.13;6.32;;;12.80;62.90;;;;;;5053988;28;20532;-69
2023/04/19 01:04:29;;;;;;;10.70;6.90;;;12.80;62.90;;;;;;5040982;28;20121;-69
2023/04/19 01:06:56;;;;;;;10.75;6.57;;;12.80;63.00;;;;;;5037082;28;20041;-69
2023/04/19 01:09:21;;;;;;;11.20;7.18;;;12.80;63.00;;;;;;5051706;28;20026;-69
2023/04/19 01:11:48;;;;;;;10.75;6.75;;;12.70;63.00;;;;;;5038324;28;20434;-68
2023/04/19 01:14:14;;;;;;;12.55;7.30;;;12.70;63.10;;;;;;5043337;28;20056;-68
2023/04/19 01:16:40;;;;;;;10.13;6.65;;;12.80;63.20;;;;;;5044478;28;20120;-69
2023/04/19 01:19:06;;;;;;;10.93;6.88;;;12.70;63.20;;;;;;5048699;28;20064;-69
2023/04/19 01:21:32;;;;;;;10.93;6.72;;;12.70;63.90;;;;;;5039133;28;20036;-69
2023/04/19 01:23:57;;;;;;;10.68;6.70;;;12.70;63.20;;;;;;5033500;28;20021;-69
2023/04/19 01:26:24;;;;;;;10.43;6.90;;;12.70;63.30;;;;;;5039024;28;20067;-68
2023/04/19 01:28:49;;;;;;;12.32;7.60;;;12.70;63.40;;;;;;5045906;28;20418;-68
2023/04/19 01:31:15;;;;;;;11.63;7.45;;;12.70;63.60;;;;;;5036368;28;20025;-68
2023/04/19 01:33:41;;;;;;;11.85;7.10;;;12.70;63.60;;;;;;5047036;28;20112;-69
2023/04/19 01:36:08;;;;;;;11.60;7.78;;;12.60;63.70;;;;;;5032734;28;20471;-68
2023/04/19 01:38:34;;;;;;;10.73;6.65;;;12.60;63.80;;;;;;5034049;28;20036;-69
2023/04/19 01:41:00;;;;;;;11.93;7.10;;;12.70;63.80;;;;;;5045973;28;20028;-68
2023/04/19 01:43:26;;;;;;;11.07;6.80;;;12.60;63.80;;;;;;5052818;28;20051;-69
2023/04/19 01:45:52;;;;;;;10.80;6.78;;;12.60;63.80;;;;;;5042577;28;20029;-68
2023/04/19 01:48:18;;;;;;;11.77;7.20;;;12.60;63.90;;;;;;5038717;28;20021;-68
2023/04/19 01:50:44;;;;;;;10.73;7.38;;;12.60;63.90;;;;;;5040449;28;20027;-68
2023/04/19 01:53:10;;;;;;;10.85;6.93;;;12.60;64.10;;;;;;5032788;28;20033;-68
2023/04/19 01:55:35;;;;;;;12.25;7.28;;;12.60;64.10;;;;;;5041343;28;20052;-68
2023/04/19 01:58:01;;;;;;;14.10;7.63;;;12.50;64.10;;;;;;5054180;28;20021;-69
2023/04/19 02:00:28;;;;;;;10.43;6.95;;;12.50;64.10;;;;;;5036714;28;20025;-69
2023/04/19 02:02:53;;;;;;;11.98;6.72;;;12.50;64.20;;;;;;5054355;28;20444;-69
2023/04/19 02:05:20;;;;;;;11.10;6.95;;;12.50;64.30;;;;;;5039136;28;20025;-68
2023/04/19 02:07:46;;;;;;;10.60;7.03;;;12.50;64.30;;;;;;5039400;28;20512;-69
2023/04/19 02:10:12;;;;;;;11.75;6.82;;;12.50;64.40;;;;;;5014834;28;20044;-68
2023/04/19 02:12:40;;;;;;;11.13;6.50;;;12.40;64.40;;;;;;5023161;28;20027;-68
2023/04/19 02:15:06;;;;;;;10.45;6.70;;;12.40;64.40;;;;;;5021090;28;20115;-69
2023/04/19 02:17:35;;;;;;;10.18;6.75;;;12.40;64.50;;;;;;5030332;28;20051;-69
2023/04/19 02:20:00;;;;;;;11.32;6.85;;;12.40;64.40;;;;;;5040735;28;20498;-68
2023/04/19 02:22:26;;;;;;;11.10;6.70;;;12.50;64.50;;;;;;5049966;28;20215;-69
2023/04/19 02:24:52;;;;;;;10.68;6.30;;;12.40;64.40;;;;;;5048381;28;20374;-68
2023/04/19 02:27:18;;;;;;;10.90;6.60;;;12.40;64.50;;;;;;5047600;28;20049;-68
2023/04/19 02:29:45;;;;;;;10.43;6.65;;;12.40;64.60;;;;;;5048506;28;20378;-69
2023/04/19 02:32:11;;;;;;;11.60;6.90;;;12.40;64.60;;;;;;5044965;28;20082;-68
2023/04/19 02:34:37;;;;;;;11.65;7.45;;;12.40;64.60;;;;;;5053357;28;20347;-69
2023/04/19 02:37:03;;;;;;;10.52;6.13;;;12.40;64.60;;;;;;5036695;28;20091;-69
2023/04/19 02:39:29;;;;;;;10.88;6.63;;;12.40;64.60;;;;;;5050669;28;20021;-69
2023/04/19 02:41:55;;;;;;;10.65;5.88;;;12.40;64.60;;;;;;5043846;28;20442;-69
2023/04/19 02:44:21;;;;;;;9.90;6.15;;;12.40;64.60;;;;;;5054161;28;20411;-69
2023/04/19 02:46:53;;;;;;;11.35;6.15;;;12.50;64.60;;;;;;5038790;28;20021;-69
2023/04/19 02:49:20;;;;;;;10.38;5.72;;;12.50;64.60;;;;;;5051870;28;20028;-69
2023/04/19 02:51:46;;;;;;;10.45;5.88;;;12.40;64.50;;;;;;5037476;28;20017;-69
2023/04/19 02:54:13;;;;;;;9.90;5.80;;;12.40;64.50;;;;;;5029362;28;20455;-68
2023/04/19 02:56:41;;;;;;;9.50;5.28;;;12.40;64.60;;;;;;5023981;28;20029;-69
2023/04/19 02:59:06;;;;;;;9.88;6.45;;;12.40;64.50;;;;;;5045761;28;20025;-69
2023/04/19 03:01:33;;;;;;;9.88;6.13;;;12.40;64.50;;;;;;5035830;28;20103;-68
2023/04/19 03:04:02;;;;;;;9.48;5.72;;;12.50;64.50;;;;;;5015567;28;20339;-68
2023/04/19 03:06:28;;;;;;;9.60;6.00;;;12.50;64.50;;;;;;5030316;28;20040;-68
2023/04/19 03:08:55;;;;;;;9.93;5.63;;;12.50;64.40;;;;;;5033037;28;20029;-69
2023/04/19 03:11:20;;;;;;;10.88;5.70;;;12.40;64.40;;;;;;5024166;28;20477;-68
2023/04/19 03:13:46;;;;;;;11.43;6.88;;;12.50;64.40;;;;;;5030131;28;20482;-69
2023/04/19 03:16:13;;;;;;;8.88;5.38;;;12.40;64.40;;;;;;5031376;28;20025;-69
2023/04/19 03:18:40;;;;;;;9.63;5.45;;;12.40;64.50;;;;;;5016626;28;20466;-69
2023/04/19 03:21:08;;;;;;;9.30;5.20;;;12.40;64.50;;;;;;5029450;28;20045;-68
2023/04/19 03:23:53;;;;;;;8.80;5.45;;;12.40;64.50;;;;;;5028120;28;20044;-69
2023/04/19 03:26:19;;;;;;;10.57;5.47;;;12.40;64.40;;;;;;5020249;28;20073;-68
2023/04/19 03:28:48;;;;;;;11.07;5.57;;;12.40;64.30;;;;;;5003675;28;20010;-68
2023/04/19 03:31:17;;;;;;;9.80;5.28;;;12.40;64.40;;;;;;5023816;28;20084;-68
2023/04/19 03:33:43;;;;;;;9.25;5.07;;;12.40;64.30;;;;;;5001145;28;20100;-68
2023/04/19 03:36:12;;;;;;;9.43;5.30;;;12.40;64.40;;;;;;5030458;28;20102;-68
2023/04/19 03:38:40;;;;;;;8.57;5.10;;;12.40;64.40;;;;;;5022568;28;20368;-69
2023/04/19 03:41:20;;;;;;;9.90;5.10;;;12.40;64.30;;;;;;5020266;28;20478;-68
2023/04/19 03:43:48;;;;;;;9.90;5.07;;;12.40;64.20;;;;;;4997736;28;20029;-69
2023/04/19 03:46:13;;;;;;;9.68;5.40;;;12.40;64.20;;;;;;5023201;28;20447;-68
2023/04/19 03:48:39;;;;;;;8.93;5.03;;;12.40;64.10;;;;;;5026261;28;20074;-68
2023/04/19 03:51:05;;;;;;;10.13;5.65;;;12.40;64.00;;;;;;5014572;28;20371;-68
2023/04/19 03:53:31;;;;;;;9.70;5.22;;;12.40;63.90;;;;;;5026885;28;20021;-68
2023/04/19 03:55:57;;;;;;;8.63;5.18;;;12.40;63.90;;;;;;5025107;28;20033;-68
2023/04/19 03:58:23;;;;;;;8.95;5.15;;;12.40;63.90;;;;;;5023547;28;20026;-68
2023/04/19 04:00:57;;;;;;;10.05;5.40;;;12.40;63.90;;;;;;5020036;28;20057;-69
2023/04/19 04:03:23;;;;;;;9.18;4.90;;;12.40;63.90;;;;;;5017235;28;20075;-68
2023/04/19 04:05:49;;;;;;;9.85;5.47;;;12.30;63.70;;;;;;5016565;28;20105;-68
2023/04/19 04:08:15;;;;;;;9.75;5.38;;;12.30;63.70;;;;;;5022145;28;20443;-68
2023/04/19 04:10:41;;;;;;;9.60;5.78;;;12.30;63.60;;;;;;5027183;28;20114;-68
2023/04/19 04:13:06;;;;;;;10.05;5.40;;;12.30;63.50;;;;;;5013927;28;20014;-68
2023/04/19 04:15:43;;;;;;;9.02;5.47;;;12.30;63.40;;;;;;5024128;28;20022;-68
2023/04/19 04:18:11;;;;;;;9.13;5.18;;;12.30;63.40;;;;;;5016697;28;20029;-68
2023/04/19 04:20:37;;;;;;;10.90;5.53;;;12.20;63.20;;;;;;5000329;28;20026;-68
2023/04/19 04:23:07;;;;;;;10.27;5.93;;;12.20;63.10;;;;;;5029814;28;20433;-68
2023/04/19 04:25:36;;;;;;;10.52;6.10;;;12.20;63.10;;;;;;5026570;28;20127;-68
2023/04/19 04:28:03;;;;;;;10.73;5.50;;;12.20;63.10;;;;;;5018918;28;20366;-68
2023/04/19 04:30:29;;;;;;;9.95;5.00;;;12.20;63.00;;;;;;5018051;28;20109;-68
2023/04/19 04:32:57;;;;;;;10.25;5.65;;;12.10;62.90;;;;;;5031685;28;20397;-67
2023/04/19 04:35:24;;;;;;;9.90;5.78;;;12.10;62.80;;;;;;5011907;28;20454;-68
2023/04/19 04:37:59;;;;;;;8.85;5.35;;;12.10;62.80;;;;;;5034133;28;20013;-68
2023/04/19 04:40:25;;;;;;;8.82;5.60;;;12.10;62.70;;;;;;5035506;28;20026;-68
2023/04/19 04:42:53;;;;;;;9.13;5.70;;;12.10;62.60;;;;;;5034576;28;20036;-68
2023/04/19 04:45:19;;;;;;;9.45;5.03;;;12.00;62.50;;;;;;5035105;28;20457;-68
2023/04/19 04:47:47;;;;;;;9.98;5.32;;;12.00;63.00;;;;;;5032974;28;20100;-68
2023/04/19 04:50:15;;;;;;;8.50;4.97;;;12.00;62.30;;;;;;5035091;28;20375;-69
2023/04/19 04:52:41;;;;;;;9.45;5.05;;;12.00;62.30;;;;;;5033761;28;20075;-69
2023/04/19 04:55:14;;;;;;;8.30;5.25;;;12.00;62.30;;;;;;5034914;28;20030;-68
2023/04/19 04:57:42;;;;;;;10.50;5.05;;;12.00;62.20;;;;;;5032716;28;20080;-68
2023/04/19 05:00:14;;;;;;;9.95;5.55;;;11.90;62.10;;;;;;5032816;28;20033;-67
2023/04/19 05:02:57;;;;;;;9.43;5.45;;;12.00;62.10;;;;;;5033811;28;20072;-67
2023/04/19 05:05:23;;;;;;;10.70;5.60;;;12.00;62.00;;;;;;5041412;28;20129;-67
2023/04/19 05:07:49;;;;;;;9.10;5.05;;;11.90;61.90;;;;;;5032864;28;20028;-66
2023/04/19 05:10:15;;;;;;;10.18;5.03;;;11.90;61.90;;;;;;5035274;28;20033;-67
2023/04/19 05:12:44;;;;;;;9.40;5.05;;;11.90;61.80;;;;;;5035125;28;20099;-66
2023/04/19 05:15:10;;;;;;;8.10;4.65;;;11.90;61.70;;;;;;5041991;28;20041;-66
2023/04/19 05:17:38;;;;;;;7.38;4.30;;;11.90;61.70;;;;;;5048300;28;20442;-66
2023/04/19 05:20:04;;;;;;;7.80;4.85;;;11.90;61.70;;;;;;5053974;28;20126;-66
2023/04/19 05:22:31;;;;;;;8.70;5.38;;;11.90;61.50;;;;;;5048499;28;20088;-66
2023/04/19 05:24:57;;;;;;;8.00;4.75;;;11.90;61.50;;;;;;5051234;28;20091;-66
2023/04/19 05:27:23;;;;;;;8.48;5.05;;;12.00;61.40;;;;;;5050392;28;20017;-66
2023/04/19 05:29:50;;;;;;;9.75;5.00;;;12.00;61.30;;;;;;5042548;28;20413;-66
2023/04/19 05:32:16;;;;;;;10.02;5.07;;;12.00;61.20;;;;;;5048863;28;20021;-66
2023/04/19 05:34:48;;;;;;;12.00;5.10;;;12.00;61.00;;;;;;5026119;28;20108;-66
2023/04/19 05:37:15;;;;;;;8.43;4.75;;;12.30;60.60;;;;;;5035418;28;20052;-66
2023/04/19 05:39:40;;;;;;;8.48;4.93;;;12.80;59.40;;;;;;5039775;28;20426;-66
2023/04/19 05:42:06;;;;;;;10.15;5.13;;;13.00;58.70;;;;;;5048383;28;20116;-66
2023/04/19 05:44:32;;;;;;;10.93;5.18;;;12.90;58.50;;;;;;5055414;28;20065;-66
2023/04/19 05:46:58;;;;;;;8.50;4.72;;;12.80;58.50;;;;;;5047620;28;20029;-66
2023/04/19 05:49:54;;;;;;;8.35;4.50;;;12.70;58.50;;;;;;5036997;28;20022;-66
2023/04/19 05:52:32;;;;;;;10.82;5.45;;;12.60;58.50;;;;;;5045110;28;20075;-66
2023/04/19 05:55:00;;;;;;;10.02;4.90;;;12.50;58.50;;;;;;5049424;28;20167;-66
2023/04/19 05:57:26;;;;;;;9.32;4.70;;;12.50;58.50;;;;;;5034242;28;20021;-66
2023/04/19 05:59:52;;;;;;;9.00;4.47;;;12.40;58.50;;;;;;5034287;28;20438;-66
2023/04/19 06:02:21;;;;;;;9.25;4.63;;;12.40;58.30;;;;;;5030289;28;20296;-66
2023/04/19 06:04:48;;;;;;;9.23;4.68;;;12.30;58.20;;;;;;5045384;28;20103;-66
2023/04/19 06:07:13;;;;;;;8.63;4.78;;;12.30;58.10;;;;;;5041967;28;20018;-67
2023/04/19 06:09:39;;;;;;;8.73;4.68;;;12.40;57.90;;;;;;5034673;28;20083;-67
2023/04/19 06:12:06;;;;;;;9.68;5.15;;;12.40;57.50;;;;;;5034582;28;20454;-66
2023/04/19 06:14:32;;;;;;;8.10;4.65;;;12.50;57.90;;;;;;5042640;28;20037;-66
2023/04/19 06:16:58;;;;;;;10.98;4.80;;;12.50;56.90;;;;;;5034533;28;20029;-67
2023/04/19 06:19:24;;;;;;;8.85;4.22;;;12.60;56.60;;;;;;5031571;28;20025;-67
2023/04/19 06:21:50;;;;;;;8.18;4.82;;;12.90;56.00;;;;;;5033472;28;20021;-66
2023/04/19 06:24:15;;;;;;;8.43;4.30;;;13.30;55.40;;;;;;5040644;28;20076;-66
2023/04/19 06:26:42;;;;;;;8.40;4.38;;;13.70;54.60;;;;;;5041101;28;20059;-66
2023/04/19 06:29:07;;;;;;;7.13;3.83;;;13.90;54.00;;;;;;5036294;28;20033;-66
2023/04/19 06:31:33;;;;;;;10.57;4.47;;;14.20;53.50;;;;;;5022220;28;20075;-66
2023/04/19 06:33:59;;;;;;;9.93;4.43;;;14.30;53.00;;;;;;5032999;28;20172;-67
2023/04/19 06:36:25;;;;;;;7.53;4.10;;;14.40;52.60;;;;;;5041570;28;20112;-67
2023/04/19 06:38:51;;;;;;;8.38;4.03;;;14.60;52.10;;;;;;5033431;28;20044;-66
2023/04/19 06:41:17;;;;;;;7.47;4.03;;;14.90;51.50;;;;;;5046998;28;20028;-66
2023/04/19 06:43:43;;;;;;;10.38;4.15;;;15.10;50.80;;;;;;5038482;28;20128;-66
2023/04/19 06:46:10;;;;;;;8.25;4.25;;;15.20;50.30;;;;;;5037244;28;20036;-67
2023/04/19 06:48:36;;;;;;;8.40;4.10;;;15.30;49.80;;;;;;5046873;28;20029;-67
2023/04/19 06:51:02;;;;;;;7.68;3.67;;;15.40;50.00;;;;;;5047674;28;20047;-67
2023/04/19 06:53:27;;;;;;;6.82;3.33;;;15.60;48.90;;;;;;5037714;28;20048;-68
2023/04/19 06:56:03;;;;;;;7.85;3.78;;;15.70;48.30;;;;;;5047366;28;20029;-67
2023/04/19 06:58:30;;;;;;;6.10;3.20;;;15.80;47.70;;;;;;5044209;28;20339;-67
2023/04/19 07:00:56;;;;;;;6.80;3.38;;;15.90;47.70;;;;;;5038217;28;20033;-67
2023/04/19 07:03:22;;;;;;;7.30;3.70;;;16.00;47.10;;;;;;5044946;28;20045;-67
2023/04/19 07:05:48;;;;;;;7.82;3.40;;;16.10;46.50;;;;;;5050508;28;20021;-71
2023/04/19 07:08:14;;;;;;;8.77;3.25;;;16.10;46.20;;;;;;5016653;28;20361;-67
2023/04/19 07:10:42;;;;;;;6.95;3.13;;;16.20;45.70;;;;;;5040271;28;20032;-70
2023/04/19 07:13:11;;;;;;;7.60;3.42;;;16.30;45.20;;;;;;5040910;28;20026;-68
2023/04/19 07:15:37;;;;;;;8.77;3.30;;;16.40;44.90;;;;;;5052705;28;20029;-69
2023/04/19 07:18:03;;;;;;;5.82;2.70;;;16.50;44.60;;;;;;5035712;28;20037;-68
2023/04/19 07:20:30;;;;;;;7.68;2.90;;;16.50;44.30;;;;;;5046980;28;20037;-68
2023/04/19 07:22:58;;;;;;;8.15;3.08;;;16.70;43.90;;;;;;5038626;28;20048;-68
2023/04/19 07:25:23;;;;;;;6.35;2.78;;;16.70;43.50;;;;;;5043956;28;20032;-68
2023/04/19 07:27:51;;;;;;;6.57;2.90;;;16.80;43.30;;;;;;5041528;28;20029;-67
2023/04/19 07:30:17;;;;;;;6.40;2.75;;;16.80;43.30;;;;;;5046259;28;20037;-66
2023/04/19 07:32:43;;;;;;;6.95;3.15;;;16.80;42.40;;;;;;5047321;28;20083;-68
2023/04/19 07:35:09;;;;;;;5.75;2.35;;;16.90;42.40;;;;;;5036862;28;20132;-68
2023/04/19 07:37:34;;;;;;;6.18;2.50;;;17.00;42.20;;;;;;5042687;28;20025;-68
2023/04/19 07:40:00;;;;;;;5.53;2.58;;;17.10;42.00;;;;;;5046187;28;20013;-68
2023/04/19 07:42:29;;;;;;;6.13;2.95;;;17.20;41.70;;;;;;5049016;28;20453;-68
2023/04/19 07:44:56;;;;;;;6.50;2.90;;;17.20;41.60;;;;;;5050615;28;20029;-67
2023/04/19 07:47:21;;;;;;;5.60;2.50;;;17.40;41.30;;;;;;5043831;28;20034;-68
2023/04/19 07:49:51;;;;;;;6.80;2.53;;;17.40;40.80;;;;;;5032405;28;20029;-67
2023/04/19 07:52:17;;;;;;;6.20;3.00;;;17.50;40.50;;;;;;5040109;28;20491;-68
2023/04/19 07:54:43;;;;;;;6.07;2.65;;;17.50;40.40;;;;;;5053275;28;20116;-68
2023/04/19 07:57:09;;;;;;;6.10;2.50;;;17.60;40.30;;;;;;5042110;28;20123;-67
2023/04/19 07:59:34;;;;;;;6.40;2.45;;;17.70;40.10;;;;;;5036092;28;20037;-66
2023/04/19 08:02:00;;;;;;;6.85;2.80;;;17.80;39.80;;;;;;5034197;28;20017;-67
2023/04/19 08:04:26;;;;;;;6.25;2.53;;;17.90;39.70;;;;;;5057411;28;20033;-67
2023/04/19 08:06:52;;;;;;;4.88;2.20;;;18.00;39.30;;;;;;5032319;28;20040;-67
2023/04/19 08:09:18;;;;;;;6.65;2.50;;;18.00;39.10;;;;;;5034064;28;20034;-66
2023/04/19 08:11:44;;;;;;;6.95;2.40;;;18.00;38.90;;;;;;5038685;28;20040;-66
2023/04/19 08:14:10;;;;;;;5.00;2.33;;;18.00;38.60;;;;;;5044513;28;20129;-66
2023/04/19 08:16:36;;;;;;;5.88;2.60;;;18.10;38.90;;;;;;5044506;28;20057;-65
2023/04/19 08:19:02;;;;;;;4.70;2.13;;;18.20;38.70;;;;;;5050331;28;20029;-66
2023/04/19 08:21:28;;;;;;;5.28;2.20;;;18.30;38.50;;;;;;5038478;28;20025;-66
2023/04/19 08:23:53;;;;;;;4.60;2.10;;;18.40;38.20;;;;;;5050428;28;20051;-66
2023/04/19 08:26:19;;;;;;;4.47;2.05;;;18.40;38.00;;;;;;5055133;28;20082;-66
2023/04/19 08:28:45;;;;;;;4.90;1.98;;;18.40;37.80;;;;;;5047044;28;20060;-65
2023/04/19 08:31:11;;;;;;;4.78;2.15;;;18.60;37.80;;;;;;5039692;28;20025;-67
2023/04/19 08:33:37;;;;;;;4.30;1.67;;;18.60;37.60;;;;;;5036310;28;20033;-66
2023/04/19 08:36:03;;;;;;;4.90;2.10;;;18.70;37.40;;;;;;5056787;28;20505;-66
2023/04/19 08:38:28;;;;;;;5.75;2.17;;;18.80;37.20;;;;;;5041074;28;20120;-66
2023/04/19 08:40:54;;;;;;;4.70;2.00;;;18.90;37.10;;;;;;5035474;28;20033;-67
2023/04/19 08:43:20;;;;;;;5.05;2.00;;;18.90;36.80;;;;;;5049831;28;20029;-68
2023/04/19 08:45:50;;;;;;;3.30;1.40;;;19.00;36.70;;;;;;5041595;28;20060;-67
2023/04/19 08:48:16;;;;;;;5.40;1.67;;;19.10;36.40;;;;;;5053088;28;20029;-67
2023/04/19 08:50:45;;;;;;;6.95;1.85;;;19.10;36.10;;;;;;5047210;28;20041;-67
2023/04/19 08:53:11;;;;;;;3.47;1.60;;;19.10;35.90;;;;;;5050627;28;20024;-67
2023/04/19 08:55:39;;;;;;;3.83;1.52;;;19.10;35.80;;;;;;5056400;28;20040;-67
2023/04/19 08:58:05;;;;;;;4.07;1.65;;;19.10;35.80;;;;;;5055155;28;20450;-67
2023/04/19 09:00:37;;;;;;;4.10;1.52;;;19.10;35.30;;;;;;5044999;28;20036;-67
2023/04/19 09:03:06;;;;;;;4.25;1.50;;;19.10;35.20;;;;;;5039843;28;20049;-67
2023/04/19 09:05:32;;;;;;;4.97;1.58;;;19.10;35.20;;;;;;5052137;28;20183;-67
2023/04/19 09:08:20;;;;;;;4.75;1.60;;;19.00;35.30;;;;;;5048963;28;20446;-68
2023/04/19 09:10:58;;;;;;;5.28;1.55;;;19.00;35.20;;;;;;5021341;28;20467;-68
2023/04/19 09:13:24;;;;;;;3.97;1.70;;;19.10;35.30;;;;;;5036891;28;20052;-67
2023/04/19 09:15:52;;;;;;;3.90;1.60;;;19.10;35.30;;;;;;5055940;28;20036;-68
2023/04/19 09:18:19;;;;;;;4.38;1.83;;;19.00;34.90;;;;;;5038453;28;20025;-68
2023/04/19 09:20:45;;;;;;;6.03;2.28;;;19.00;34.80;;;;;;5040692;28;20116;-67
2023/04/19 09:23:14;;;;;;;3.45;1.60;;;18.80;34.60;;;;;;5042024;28;20128;-68
2023/04/19 09:25:51;;;;;;;4.47;1.67;;;18.70;34.70;;;;;;5052072;28;20068;-67
2023/04/19 09:28:16;;;;;;;4.60;1.67;;;18.80;34.80;;;;;;5037146;28;20033;-68
2023/04/19 09:30:42;;;;;;;4.25;1.40;;;18.80;34.80;;;;;;5049755;28;20040;-68
2023/04/19 09:33:08;;;;;;;4.03;1.50;;;18.70;34.70;;;;;;5037257;28;20033;-68
2023/04/19 09:35:48;;;;;;;4.82;1.80;;;18.60;34.80;;;;;;5029791;28;20075;-68
2023/04/19 09:38:15;;;;;;;4.40;1.63;;;18.60;35.00;;;;;;5040868;28;20421;-68
2023/04/19 09:40:41;;;;;;;4.50;1.80;;;18.60;35.20;;;;;;5055608;28;20031;-68
2023/04/19 09:43:07;;;;;;;3.65;1.48;;;18.70;35.20;;;;;;5020905;28;20051;-68
2023/04/19 09:45:43;;;;;;;5.18;1.75;;;18.60;35.20;;;;;;5055955;28;20406;-67
2023/04/19 09:48:10;;;;;;;4.22;1.80;;;18.70;35.40;;;;;;5041878;28;20060;-67
2023/04/19 09:50:50;;;;;;;3.42;1.77;;;18.90;35.50;;;;;;5054503;28;20456;-67
2023/04/19 09:53:20;;;;;;;4.00;1.50;;;19.00;35.20;;;;;;5037681;28;20370;-67
2023/04/19 09:55:46;;;;;;;3.88;1.48;;;19.00;35.40;;;;;;5048834;28;20037;-66
2023/04/19 09:58:13;;;;;;;3.28;1.70;;;19.10;35.40;;;;;;5039388;28;20029;-68
2023/04/19 10:00:42;;;;;;;4.22;1.60;;;19.30;35.30;;;;;;5055666;28;20033;-67
2023/04/19 10:03:09;;;;;;;3.67;1.63;;;19.30;34.90;;;;;;5039804;28;20026;-66
2023/04/19 10:05:40;;;;;;;4.32;1.50;;;19.30;34.60;;;;;;5055179;28;20114;-67
2023/04/19 10:08:11;;;;;;;5.00;1.50;;;19.40;34.70;;;;;;5037086;28;20029;-67
2023/04/19 10:10:39;;;;;;;4.95;1.75;;;19.50;34.50;;;;;;5025942;28;20029;-68
2023/04/19 10:13:07;;;;;;;4.70;2.03;;;19.50;34.30;;;;;;5032641;28;20060;-67
2023/04/19 10:15:35;;;;;;;6.43;1.90;;;19.50;34.30;;;;;;5041352;28;20043;-67
2023/04/19 10:18:05;;;;;;;4.53;1.70;;;19.60;34.30;;;;;;5034705;28;20120;-69
2023/04/19 10:21:06;;;;;;;5.25;1.50;;;19.60;34.50;;;;;;5043978;28;20040;-69
2023/04/19 10:23:33;;;;;;;2.95;1.33;;;19.60;34.30;;;;;;5038453;28;20037;-67
2023/04/19 10:25:59;;;;;;;5.93;1.60;;;19.70;34.40;;;;;;5016466;28;20393;-67
2023/04/19 10:28:28;;;;;;;3.00;1.42;;;19.70;34.40;;;;;;5036711;28;20090;-67
2023/04/19 10:31:00;;;;;;;5.15;1.90;;;19.70;34.10;;;;;;5034931;28;20030;-67
2023/04/19 10:33:33;;;;;;;5.78;1.92;;;19.70;33.90;;;;;;5039933;28;20090;-68
2023/04/19 10:35:59;;;;;;;4.30;1.85;;;19.60;33.80;;;;;;5043655;28;20056;-68
2023/04/19 10:38:46;;;;;;;3.72;1.33;;;19.60;33.90;;;;;;5054191;28;20036;-67
2023/04/19 10:41:16;;;;;;;3.17;1.50;;;19.60;33.50;;;;;;5053089;28;20032;-68
2023/04/19 10:43:46;;;;;;;3.60;1.60;;;19.70;33.90;;;;;;5039021;28;20052;-68
2023/04/19 10:46:36;;;;;;;4.82;1.77;;;19.80;33.50;;;;;;5042877;28;20366;-68
2023/04/19 10:49:03;;;;;;;3.88;1.58;;;19.80;33.40;;;;;;5038058;28;20047;-70
2023/04/19 10:51:37;;;;;;;3.95;1.70;;;19.70;33.30;;;;;;5041980;28;20108;-67
2023/04/19 10:54:05;;;;;;;3.72;1.65;;;19.60;33.40;;;;;;5031316;28;20066;-67
2023/04/19 10:56:33;;;;;;;4.38;1.90;;;19.50;33.50;;;;;;5034022;28;20075;-68
2023/04/19 10:58:59;;;;;;;4.43;1.83;;;19.60;33.50;;;;;;5042112;28;20023;-67
2023/04/19 11:01:38;;;;;;;4.90;2.17;;;19.60;33.80;;;;;;5039168;28;20045;-68
2023/04/19 11:04:09;;;;;;;4.35;1.88;;;19.50;32.80;;;;;;5032071;28;20048;-67
2023/04/19 11:06:36;;;;;;;4.43;1.77;;;19.50;33.00;;;;;;5036800;28;20041;-67
2023/04/19 11:09:04;;;;;;;4.40;2.00;;;19.50;32.90;;;;;;5031967;28;20040;-68
2023/04/19 11:11:36;;;;;;;5.07;1.80;;;19.40;32.70;;;;;;5031914;28;20175;-69
2023/04/19 11:14:05;;;;;;;4.93;1.98;;;19.40;32.60;;;;;;5032182;28;20127;-69
2023/04/19 11:16:31;;;;;;;3.60;1.70;;;19.50;32.50;;;;;;5014788;28;20160;-66
2023/04/19 11:18:57;;;;;;;5.22;2.10;;;19.60;32.20;;;;;;5029967;28;20064;-69
2023/04/19 11:21:23;;;;;;;3.75;1.83;;;19.60;31.60;;;;;;5052531;28;20045;-69
2023/04/19 11:24:04;;;;;;;5.97;2.05;;;19.50;31.00;;;;;;5042759;28;20049;-69
2023/04/19 11:26:30;;;;;;;6.47;2.22;;;19.60;31.00;;;;;;5038809;28;20037;-69
2023/04/19 11:28:55;;;;;;;4.68;1.98;;;19.70;30.70;;;;;;5053041;28;20035;-69
2023/04/19 11:31:22;;;;;;;5.75;2.30;;;19.60;30.10;;;;;;5051831;28;20021;-68
2023/04/19 11:33:48;;;;;;;6.32;2.03;;;19.60;30.00;;;;;;5047790;28;20029;-68
2023/04/19 11:36:14;;;;;;;4.15;1.83;;;19.60;29.90;;;;;;5032159;28;20060;-68
2023/04/19 11:38:40;;;;;;;5.70;2.22;;;19.60;29.80;;;;;;5047319;28;20068;-68
2023/04/19 11:41:06;;;;;;;4.03;1.95;;;19.60;29.60;;;;;;5035620;28;20081;-68
2023/04/19 11:43:36;;;;;;;3.50;1.70;;;19.50;29.70;;;;;;5051842;28;20116;-68
2023/04/19 11:46:06;;;;;;;5.07;2.30;;;19.40;29.70;;;;;;5039695;28;20017;-68
2023/04/19 11:48:32;;;;;;;6.88;2.17;;;19.40;29.70;;;;;;5053483;28;20021;-67
2023/04/19 11:50:59;;;;;;;4.47;2.15;;;19.50;29.80;;;;;;5051725;28;20090;-67
2023/04/19 11:53:28;;;;;;;4.28;1.88;;;19.40;29.80;;;;;;5043672;28;20387;-68
2023/04/19 11:55:57;;;;;;;5.25;1.90;;;19.40;29.90;;;;;;5033768;28;20101;-68
2023/04/19 11:58:34;;;;;;;5.38;2.00;;;19.50;30.00;;;;;;5042054;28;20090;-68
2023/04/19 12:01:15;;;;;;;5.88;2.28;;;19.50;29.70;;;;;;5051579;28;20089;-68
2023/04/19 12:03:52;;;;;;;6.00;2.53;;;19.50;29.50;;;;;;5051797;28;20035;-68
2023/04/19 12:06:38;;;;;;;5.68;2.30;;;19.40;29.30;;;;;;5043795;28;20029;-69
2023/04/19 12:09:08;;;;;;;3.95;1.98;;;19.20;29.40;;;;;;5051147;28;20107;-68
2023/04/19 12:11:52;;;;;;;4.88;1.95;;;19.20;29.60;;;;;;5051626;28;20040;-68
2023/04/19 12:14:21;;;;;;;5.05;2.28;;;19.10;29.70;;;;;;5011290;28;1182793;-68
2023/04/19 12:17:03;;;;;;;5.35;2.30;;;19.00;29.90;;;;;;5048817;28;20287;-68
2023/04/19 12:19:44;;;;;;;6.95;2.45;;;19.10;29.90;;;;;;5038729;28;20025;-68
2023/04/19 12:22:16;;;;;;;4.28;1.98;;;19.00;29.80;;;;;;5053021;28;20041;-68
2023/04/19 12:24:42;;;;;;;4.68;2.10;;;19.00;29.70;;;;;;5053407;28;20032;-69
2023/04/19 12:27:08;;;;;;;4.93;2.08;;;18.90;29.90;;;;;;5044383;28;20104;-68
2023/04/19 12:29:35;;;;;;;5.03;2.22;;;18.90;30.00;;;;;;5034838;28;20112;-68
2023/04/19 12:32:02;;;;;;;5.28;2.28;;;18.90;30.00;;;;;;5044058;28;20017;-68
2023/04/19 12:34:28;;;;;;;4.43;2.10;;;18.90;30.00;;;;;;5032740;28;21502;-68
2023/04/19 12:36:54;;;;;;;6.28;2.35;;;18.80;30.00;;;;;;5032237;28;20418;-68
2023/04/19 12:39:20;;;;;;;5.53;2.50;;;18.80;30.10;;;;;;5026930;28;20443;-68
2023/04/19 12:41:47;;;;;;;5.50;2.28;;;18.80;30.10;;;;;;5052746;28;20119;-68
2023/04/19 12:44:14;;;;;;;6.30;2.60;;;18.70;30.20;;;;;;5053374;28;20142;-68
2023/04/19 12:46:40;;;;;;;5.40;2.50;;;18.70;30.40;;;;;;5053499;28;20017;-68